createdAt,value
2024-02-29T00:00:32.000Z,989.95
2024-02-29T00:05:26.000Z,989.90
2024-02-29T00:10:20.000Z,989.85
2024-02-29T00:15:14.000Z,989.85
2024-02-29T00:20:08.000Z,989.90
2024-02-29T00:25:02.000Z,989.86
2024-02-29T00:29:56.000Z,989.83
2024-02-29T00:34:51.000Z,989.83
2024-02-29T00:39:45.000Z,989.79
2024-02-29T00:44:39.000Z,989.64
2024-02-29T00:49:34.000Z,989.65
2024-02-29T00:54:28.000Z,989.64
2024-02-29T00:59:22.000Z,989.63
2024-02-29T01:04:15.000Z,989.66
2024-02-29T01:09:09.000Z,989.57
2024-02-29T01:14:03.000Z,989.48
2024-02-29T01:18:55.000Z,989.54
2024-02-29T01:23:49.000Z,989.52
2024-02-29T01:28:43.000Z,989.44
2024-02-29T01:33:37.000Z,989.44
2024-02-29T01:38:30.000Z,989.32
2024-02-29T01:43:25.000Z,989.36
2024-02-29T01:48:19.000Z,989.27
2024-02-29T01:53:13.000Z,989.21
2024-02-29T01:58:07.000Z,989.02
2024-02-29T02:03:01.000Z,989.01
2024-02-29T02:07:55.000Z,989.01
2024-02-29T02:12:49.000Z,988.84
2024-02-29T02:17:44.000Z,988.91
2024-02-29T02:22:38.000Z,988.86
2024-02-29T02:27:32.000Z,988.70
2024-02-29T02:32:26.000Z,988.64
2024-02-29T02:37:20.000Z,988.53
2024-02-29T02:42:14.000Z,988.57
2024-02-29T02:47:08.000Z,988.53
2024-02-29T02:52:02.000Z,988.45
2024-02-29T02:56:56.000Z,988.40
2024-02-29T03:01:51.000Z,988.35
2024-02-29T03:06:45.000Z,988.35
2024-02-29T03:11:38.000Z,988.29
2024-02-29T03:16:33.000Z,988.24
2024-02-29T03:21:27.000Z,988.24
2024-02-29T03:26:21.000Z,988.19
2024-02-29T03:31:15.000Z,988.19
2024-02-29T03:36:09.000Z,988.12
2024-02-29T03:41:03.000Z,988.03
2024-02-29T03:45:57.000Z,987.93
2024-02-29T03:50:50.000Z,987.93
2024-02-29T03:55:44.000Z,987.84
2024-02-29T04:00:37.000Z,987.75
2024-02-29T04:05:30.000Z,987.75
2024-02-29T04:10:23.000Z,987.75
2024-02-29T04:15:17.000Z,987.63
2024-02-29T04:20:11.000Z,987.57
2024-02-29T04:25:06.000Z,987.59
2024-02-29T04:29:58.000Z,987.56
2024-02-29T04:34:52.000Z,987.49
2024-02-29T04:39:46.000Z,987.41
2024-02-29T04:44:40.000Z,987.41
2024-02-29T04:49:34.000Z,987.37
2024-02-29T04:54:28.000Z,987.39
2024-02-29T04:59:23.000Z,987.30
2024-02-29T05:04:16.000Z,987.27
2024-02-29T05:09:10.000Z,987.22
2024-02-29T05:14:04.000Z,987.29
2024-02-29T05:18:56.000Z,987.38
2024-02-29T05:23:51.000Z,987.42
2024-02-29T05:28:45.000Z,987.40
2024-02-29T05:33:39.000Z,987.36
2024-02-29T05:38:33.000Z,987.36
2024-02-29T05:43:27.000Z,987.43
2024-02-29T05:48:21.000Z,987.32
2024-02-29T05:53:14.000Z,987.30
2024-02-29T05:58:05.000Z,987.29
2024-02-29T06:02:59.000Z,987.19
2024-02-29T06:07:53.000Z,987.19
2024-02-29T06:12:47.000Z,987.10
2024-02-29T06:17:43.000Z,987.05
2024-02-29T06:22:34.000Z,987.05
2024-02-29T06:27:28.000Z,986.96
2024-02-29T06:32:25.000Z,986.96
2024-02-29T06:37:17.000Z,986.81
2024-02-29T06:42:11.000Z,986.86
2024-02-29T06:47:05.000Z,986.82
2024-02-29T06:51:59.000Z,986.81
2024-02-29T06:56:53.000Z,986.83
2024-02-29T07:01:47.000Z,986.76
2024-02-29T07:06:43.000Z,986.83
2024-02-29T07:11:34.000Z,986.86
2024-02-29T07:16:27.000Z,986.76
2024-02-29T07:21:21.000Z,986.75
2024-02-29T07:26:15.000Z,986.61
2024-02-29T07:31:10.000Z,986.63
2024-02-29T07:36:02.000Z,986.50
2024-02-29T07:40:54.000Z,986.46
2024-02-29T07:45:51.000Z,986.52
2024-02-29T07:50:45.000Z,986.51
2024-02-29T07:55:37.000Z,986.52
2024-02-29T08:00:30.000Z,986.48
2024-02-29T08:05:25.000Z,986.44
2024-02-29T08:10:18.000Z,986.43
2024-02-29T08:15:09.000Z,986.43
2024-02-29T08:20:03.000Z,986.37
2024-02-29T08:24:57.000Z,986.38
2024-02-29T08:29:51.000Z,986.44
2024-02-29T08:34:45.000Z,986.20
2024-02-29T08:39:39.000Z,986.09
2024-02-29T08:44:33.000Z,986.03
2024-02-29T08:49:27.000Z,985.89
2024-02-29T08:54:21.000Z,985.91
2024-02-29T08:59:15.000Z,985.81
2024-02-29T09:04:09.000Z,985.78
2024-02-29T09:09:03.000Z,985.77
2024-02-29T09:13:59.000Z,985.61
2024-02-29T09:18:54.000Z,985.64
2024-02-29T09:23:50.000Z,985.56
2024-02-29T09:28:48.000Z,985.39
2024-02-29T09:33:41.000Z,985.31
2024-02-29T09:38:35.000Z,985.36
2024-02-29T09:43:30.000Z,985.31
2024-02-29T09:48:25.000Z,985.25
2024-02-29T09:53:19.000Z,985.21
2024-02-29T09:58:13.000Z,985.11
2024-02-29T10:03:07.000Z,985.02
2024-02-29T10:08:00.000Z,984.96
2024-02-29T10:12:54.000Z,984.87
2024-02-29T10:17:49.000Z,984.75
2024-02-29T10:22:43.000Z,984.79
2024-02-29T10:27:38.000Z,984.69
2024-02-29T10:32:32.000Z,984.71
2024-02-29T10:37:26.000Z,984.74
2024-02-29T10:42:17.000Z,984.55
2024-02-29T10:47:11.000Z,984.56
2024-02-29T10:52:05.000Z,984.55
2024-02-29T10:57:00.000Z,984.52
2024-02-29T11:01:56.000Z,984.44
2024-02-29T11:06:49.000Z,984.37
2024-02-29T11:11:43.000Z,984.33
2024-02-29T11:16:38.000Z,984.32
2024-02-29T11:21:32.000Z,984.12
2024-02-29T11:26:27.000Z,983.96
2024-02-29T11:31:22.000Z,983.86
2024-02-29T11:36:16.000Z,983.82
2024-02-29T11:41:09.000Z,983.68
2024-02-29T11:46:02.000Z,983.72
2024-02-29T11:50:56.000Z,983.51
2024-02-29T11:55:51.000Z,983.56
2024-02-29T12:00:44.000Z,983.44
2024-02-29T12:05:39.000Z,983.21
2024-02-29T12:10:31.000Z,983.19
2024-02-29T12:15:25.000Z,983.19
2024-02-29T12:20:19.000Z,983.03
2024-02-29T12:25:16.000Z,982.93
2024-02-29T12:30:06.000Z,982.78
2024-02-29T12:35:01.000Z,982.63
2024-02-29T12:39:55.000Z,982.58
2024-02-29T12:44:48.000Z,982.47
2024-02-29T12:49:45.000Z,982.42
2024-02-29T12:54:36.000Z,982.30
2024-02-29T12:59:29.000Z,982.16
2024-02-29T13:04:25.000Z,982.15
2024-02-29T13:09:17.000Z,981.97
2024-02-29T13:14:11.000Z,981.84
2024-02-29T13:19:05.000Z,981.82
2024-02-29T13:23:58.000Z,981.68
2024-02-29T13:28:54.000Z,981.66
2024-02-29T13:33:47.000Z,981.47
2024-02-29T13:38:43.000Z,981.49
2024-02-29T13:43:38.000Z,981.42
2024-02-29T13:48:30.000Z,981.19
2024-02-29T13:53:25.000Z,981.08
2024-02-29T13:58:20.000Z,981.00
2024-02-29T14:03:13.000Z,980.99
2024-02-29T14:08:08.000Z,980.89
2024-02-29T14:13:02.000Z,980.72
2024-02-29T14:17:56.000Z,980.71
2024-02-29T14:22:50.000Z,980.64
2024-02-29T14:27:42.000Z,980.58
2024-02-29T14:32:36.000Z,980.55
2024-02-29T14:37:30.000Z,980.44
2024-02-29T14:42:26.000Z,980.34
2024-02-29T14:47:19.000Z,980.36
2024-02-29T14:52:12.000Z,980.26
2024-02-29T14:57:06.000Z,980.16
2024-02-29T15:02:01.000Z,980.05
2024-02-29T15:06:55.000Z,980.12
2024-02-29T15:11:47.000Z,979.98
2024-02-29T15:16:40.000Z,979.97
2024-02-29T15:21:34.000Z,979.83
2024-02-29T15:26:27.000Z,979.64
2024-02-29T15:31:21.000Z,979.72
2024-02-29T15:36:14.000Z,979.65
2024-02-29T15:41:08.000Z,979.55
2024-02-29T15:46:03.000Z,979.57
2024-02-29T15:50:55.000Z,979.49
2024-02-29T15:55:49.000Z,979.50
2024-02-29T16:00:43.000Z,979.46
2024-02-29T16:05:37.000Z,979.42
2024-02-29T16:10:30.000Z,979.44
2024-02-29T16:15:24.000Z,979.43
2024-02-29T16:20:20.000Z,979.43
2024-02-29T16:25:13.000Z,979.31
2024-02-29T16:30:07.000Z,979.41
2024-02-29T16:34:58.000Z,979.31
2024-02-29T16:39:52.000Z,979.26
2024-02-29T16:44:46.000Z,979.14
2024-02-29T16:49:37.000Z,979.18
2024-02-29T16:54:29.000Z,978.99
2024-02-29T16:59:24.000Z,979.09
2024-02-29T17:04:16.000Z,979.14
2024-02-29T17:09:10.000Z,979.17
2024-02-29T17:14:03.000Z,979.14
2024-02-29T17:18:57.000Z,979.12
2024-02-29T17:23:53.000Z,979.09
2024-02-29T17:28:44.000Z,979.06
2024-02-29T17:33:38.000Z,979.02
2024-02-29T17:38:32.000Z,979.10
2024-02-29T17:43:26.000Z,979.01
2024-02-29T17:48:20.000Z,978.88
2024-02-29T17:53:13.000Z,978.86
2024-02-29T17:58:07.000Z,978.85
2024-02-29T18:03:01.000Z,978.75
2024-02-29T18:07:57.000Z,978.71
2024-02-29T18:12:48.000Z,978.73
2024-02-29T18:17:42.000Z,978.75
2024-02-29T18:22:38.000Z,978.71
2024-02-29T18:27:30.000Z,978.70
2024-02-29T18:32:24.000Z,978.84
2024-02-29T18:37:21.000Z,978.70
2024-02-29T18:42:11.000Z,978.69
2024-02-29T18:47:04.000Z,978.66
2024-02-29T18:51:58.000Z,978.59
2024-02-29T18:56:52.000Z,978.47
2024-02-29T19:01:46.000Z,978.48
2024-02-29T19:06:41.000Z,978.47
2024-02-29T19:11:34.000Z,978.55
2024-02-29T19:16:28.000Z,978.52
2024-02-29T19:21:25.000Z,978.47
2024-02-29T19:26:15.000Z,978.36
2024-02-29T19:31:09.000Z,978.29
2024-02-29T19:36:04.000Z,978.30
2024-02-29T19:40:56.000Z,978.14
2024-02-29T19:45:51.000Z,978.12
2024-02-29T19:50:43.000Z,978.03
2024-02-29T19:55:38.000Z,977.94
2024-02-29T20:00:31.000Z,977.92
2024-02-29T20:05:27.000Z,977.86
2024-02-29T20:10:22.000Z,977.79
2024-02-29T20:15:14.000Z,977.79
2024-02-29T20:20:08.000Z,977.81
2024-02-29T20:25:02.000Z,977.70
2024-02-29T20:29:55.000Z,977.68
2024-02-29T20:34:48.000Z,977.60
2024-02-29T20:39:44.000Z,977.69
2024-02-29T20:44:37.000Z,977.70
2024-02-29T20:49:33.000Z,977.69
2024-02-29T20:54:25.000Z,977.69
2024-02-29T20:59:16.000Z,977.74
2024-02-29T21:04:09.000Z,977.55
2024-02-29T21:09:04.000Z,977.49
2024-02-29T21:13:57.000Z,977.43
2024-02-29T21:18:51.000Z,977.28
2024-02-29T21:23:48.000Z,977.29
2024-02-29T21:28:41.000Z,977.28
2024-02-29T21:33:35.000Z,977.19
2024-02-29T21:38:28.000Z,977.08
2024-02-29T21:43:25.000Z,977.08
2024-02-29T21:48:16.000Z,977.19
2024-02-29T21:53:08.000Z,977.25
2024-02-29T21:58:02.000Z,977.19
2024-02-29T22:02:56.000Z,977.19
2024-02-29T22:07:50.000Z,977.20
2024-02-29T22:12:44.000Z,977.14
2024-02-29T22:17:35.000Z,977.10
2024-02-29T22:22:30.000Z,977.02
2024-02-29T22:27:23.000Z,977.02
2024-02-29T22:32:17.000Z,976.95
2024-02-29T22:37:10.000Z,976.93
2024-02-29T22:42:04.000Z,976.86
2024-02-29T22:46:59.000Z,976.77
2024-02-29T22:51:53.000Z,976.76
2024-02-29T22:56:46.000Z,976.71
2024-02-29T23:01:41.000Z,976.69
2024-02-29T23:06:35.000Z,976.65
2024-02-29T23:11:29.000Z,976.70
2024-02-29T23:16:22.000Z,976.61
2024-02-29T23:21:16.000Z,976.53
2024-02-29T23:26:10.000Z,976.48
2024-02-29T23:31:04.000Z,976.45
2024-02-29T23:35:58.000Z,976.47
2024-02-29T23:40:52.000Z,976.28
2024-02-29T23:45:46.000Z,976.28
2024-02-29T23:50:40.000Z,976.34
2024-02-29T23:55:34.000Z,976.37
